sensor_id;sensor_type;location;lat;lon;timestamp;pressure;altitude;pressure_sealevel;temperature;humidity
73633;BME280;61927;50.080;14.418;2022-12-11T00:00:43;98615.72;;;0.14;73.56
73633;BME280;61927;50.080;14.418;2022-12-11T00:03:28;98610.72;;;0.08;73.93
73633;BME280;61927;50.080;14.418;2022-12-11T00:05:54;98608.91;;;0.10;73.67
73633;BME280;61927;50.080;14.418;2022-12-11T00:08:19;98605.66;;;0.04;74.04
73633;BME280;61927;50.080;14.418;2022-12-11T00:10:48;98590.19;;;-0.03;74.45
73633;BME280;61927;50.080;14.418;2022-12-11T00:13:14;98587.84;;;-0.10;74.77
73633;BME280;61927;50.080;14.418;2022-12-11T00:15:39;98600.22;;;-0.17;74.71
73633;BME280;61927;50.080;14.418;2022-12-11T00:18:05;98590.19;;;-0.29;75.67
73633;BME280;61927;50.080;14.418;2022-12-11T00:20:30;98574.34;;;-0.23;75.07
73633;BME280;61927;50.080;14.418;2022-12-11T00:22:56;98576.97;;;-0.23;75.69
73633;BME280;61927;50.080;14.418;2022-12-11T00:25:22;98582.88;;;-0.18;75.38
73633;BME280;61927;50.080;14.418;2022-12-11T00:27:47;98584.06;;;-0.28;76.07
73633;BME280;61927;50.080;14.418;2022-12-11T00:30:13;98573.50;;;-0.23;75.64
73633;BME280;61927;50.080;14.418;2022-12-11T00:32:39;98576.81;;;-0.18;75.18
73633;BME280;61927;50.080;14.418;2022-12-11T00:35:05;98584.63;;;-0.18;75.15
73633;BME280;61927;50.080;14.418;2022-12-11T00:37:30;98585.69;;;-0.24;74.96
73633;BME280;61927;50.080;14.418;2022-12-11T00:39:56;98594.50;;;-0.28;75.27
73633;BME280;61927;50.080;14.418;2022-12-11T00:42:21;98593.53;;;-0.52;75.78
73633;BME280;61927;50.080;14.418;2022-12-11T00:44:47;98592.09;;;-0.62;76.53
73633;BME280;61927;50.080;14.418;2022-12-11T00:47:12;98596.50;;;-0.64;76.76
73633;BME280;61927;50.080;14.418;2022-12-11T00:49:38;98593.03;;;-0.64;76.16
73633;BME280;61927;50.080;14.418;2022-12-11T00:52:03;98594.66;;;-0.60;76.28
73633;BME280;61927;50.080;14.418;2022-12-11T00:54:29;98595.31;;;-0.54;75.89
73633;BME280;61927;50.080;14.418;2022-12-11T00:56:55;98594.38;;;-0.51;76.60
73633;BME280;61927;50.080;14.418;2022-12-11T00:59:20;98610.66;;;-0.45;76.12
73633;BME280;61927;50.080;14.418;2022-12-11T01:01:46;98612.13;;;-0.36;76.01
73633;BME280;61927;50.080;14.418;2022-12-11T01:04:11;98605.78;;;-0.27;75.78
73633;BME280;61927;50.080;14.418;2022-12-11T01:06:38;98613.00;;;-0.36;75.71
73633;BME280;61927;50.080;14.418;2022-12-11T01:09:03;98615.59;;;-0.36;75.51
73633;BME280;61927;50.080;14.418;2022-12-11T01:11:47;98609.59;;;-0.38;75.09
73633;BME280;61927;50.080;14.418;2022-12-11T01:14:13;98623.47;;;-0.37;75.12
73633;BME280;61927;50.080;14.418;2022-12-11T01:16:39;98616.75;;;-0.44;74.90
73633;BME280;61927;50.080;14.418;2022-12-11T01:19:04;98615.78;;;-0.42;75.15
73633;BME280;61927;50.080;14.418;2022-12-11T01:21:30;98619.28;;;-0.43;74.37
73633;BME280;61927;50.080;14.418;2022-12-11T01:23:56;98620.25;;;-0.45;74.58
73633;BME280;61927;50.080;14.418;2022-12-11T01:26:21;98619.53;;;-0.50;74.79
73633;BME280;61927;50.080;14.418;2022-12-11T01:28:51;98616.13;;;-0.52;74.89
73633;BME280;61927;50.080;14.418;2022-12-11T01:31:18;98617.03;;;-0.53;74.60
73633;BME280;61927;50.080;14.418;2022-12-11T01:33:44;98625.97;;;-0.62;75.11
73633;BME280;61927;50.080;14.418;2022-12-11T01:36:18;98618.59;;;-0.77;75.65
73633;BME280;61927;50.080;14.418;2022-12-11T01:38:44;98613.59;;;-0.83;76.33
73633;BME280;61927;50.080;14.418;2022-12-11T01:41:11;98611.19;;;-0.91;76.69
73633;BME280;61927;50.080;14.418;2022-12-11T01:46:27;98625.63;;;-0.79;75.87
73633;BME280;61927;50.080;14.418;2022-12-11T01:48:54;98629.28;;;-0.86;76.91
73633;BME280;61927;50.080;14.418;2022-12-11T01:51:21;98625.94;;;-0.90;76.42
73633;BME280;61927;50.080;14.418;2022-12-11T01:53:57;98636.94;;;-0.80;76.69
73633;BME280;61927;50.080;14.418;2022-12-11T01:56:24;98630.97;;;-0.84;76.29
73633;BME280;61927;50.080;14.418;2022-12-11T01:58:53;98633.28;;;-0.75;76.38
73633;BME280;61927;50.080;14.418;2022-12-11T02:01:28;98633.25;;;-0.73;75.89
73633;BME280;61927;50.080;14.418;2022-12-11T02:03:56;98626.19;;;-0.70;75.71
73633;BME280;61927;50.080;14.418;2022-12-11T02:06:35;98627.28;;;-0.77;75.75
73633;BME280;61927;50.080;14.418;2022-12-11T02:09:06;98623.78;;;-0.76;76.09
73633;BME280;61927;50.080;14.418;2022-12-11T02:11:40;98616.84;;;-0.77;76.13
73633;BME280;61927;50.080;14.418;2022-12-11T02:17:06;98611.91;;;-0.86;75.76
73633;BME280;61927;50.080;14.418;2022-12-11T02:27:52;98619.00;;;-0.91;74.95
73633;BME280;61927;50.080;14.418;2022-12-11T02:30:21;98613.09;;;-0.96;75.01
73633;BME280;61927;50.080;14.418;2022-12-11T02:32:53;98605.31;;;-0.98;74.69
73633;BME280;61927;50.080;14.418;2022-12-11T02:35:39;98608.06;;;-1.02;74.71
73633;BME280;61927;50.080;14.418;2022-12-11T02:38:14;98607.88;;;-0.96;74.78
73633;BME280;61927;50.080;14.418;2022-12-11T02:40:42;98608.81;;;-0.99;74.72
73633;BME280;61927;50.080;14.418;2022-12-11T02:43:12;98604.38;;;-0.95;74.09
73633;BME280;61927;50.080;14.418;2022-12-11T02:45:39;98615.59;;;-0.93;74.01
73633;BME280;61927;50.080;14.418;2022-12-11T02:48:08;98617.09;;;-0.84;73.80
73633;BME280;61927;50.080;14.418;2022-12-11T02:50:36;98616.50;;;-0.94;74.06
73633;BME280;61927;50.080;14.418;2022-12-11T02:53:06;98607.78;;;-0.93;73.64
73633;BME280;61927;50.080;14.418;2022-12-11T02:55:34;98620.22;;;-1.03;73.66
73633;BME280;61927;50.080;14.418;2022-12-11T02:58:04;98614.19;;;-1.05;74.04
73633;BME280;61927;50.080;14.418;2022-12-11T03:00:31;98622.06;;;-1.06;73.90
73633;BME280;61927;50.080;14.418;2022-12-11T03:02:57;98619.28;;;-1.00;73.87
73633;BME280;61927;50.080;14.418;2022-12-11T03:05:22;98622.28;;;-0.84;73.47
73633;BME280;61927;50.080;14.418;2022-12-11T03:07:49;98620.69;;;-0.88;72.71
73633;BME280;61927;50.080;14.418;2022-12-11T03:10:16;98617.09;;;-0.84;73.17
73633;BME280;61927;50.080;14.418;2022-12-11T03:12:49;98619.69;;;-0.84;72.95
73633;BME280;61927;50.080;14.418;2022-12-11T03:15:18;98614.38;;;-0.81;72.50
73633;BME280;61927;50.080;14.418;2022-12-11T03:18:05;98605.69;;;-0.80;72.68
73633;BME280;61927;50.080;14.418;2022-12-11T03:20:46;98608.28;;;-0.80;73.05
73633;BME280;61927;50.080;14.418;2022-12-11T03:25:58;98613.81;;;-0.91;73.36
73633;BME280;61927;50.080;14.418;2022-12-11T03:28:33;98622.44;;;-0.89;72.85
73633;BME280;61927;50.080;14.418;2022-12-11T03:31:08;98631.09;;;-0.88;73.20
73633;BME280;61927;50.080;14.418;2022-12-11T03:33:39;98622.97;;;-0.78;73.32
73633;BME280;61927;50.080;14.418;2022-12-11T03:36:12;98634.09;;;-0.73;73.21
73633;BME280;61927;50.080;14.418;2022-12-11T03:38:44;98633.88;;;-0.65;73.04
73633;BME280;61927;50.080;14.418;2022-12-11T03:41:15;98623.97;;;-0.54;72.84
73633;BME280;61927;50.080;14.418;2022-12-11T03:43:43;98621.41;;;-0.55;72.20
73633;BME280;61927;50.080;14.418;2022-12-11T03:46:09;98630.00;;;-0.52;72.59
73633;BME280;61927;50.080;14.418;2022-12-11T03:48:38;98641.06;;;-0.73;72.72
73633;BME280;61927;50.080;14.418;2022-12-11T03:51:07;98629.03;;;-0.77;73.00
73633;BME280;61927;50.080;14.418;2022-12-11T03:53:34;98637.75;;;-0.78;73.07
73633;BME280;61927;50.080;14.418;2022-12-11T03:56:02;98640.06;;;-0.69;73.04
73633;BME280;61927;50.080;14.418;2022-12-11T03:58:29;98641.56;;;-0.60;72.78
73633;BME280;61927;50.080;14.418;2022-12-11T04:00:54;98645.69;;;-0.83;72.72
73633;BME280;61927;50.080;14.418;2022-12-11T04:03:20;98645.22;;;-0.97;74.08
73633;BME280;61927;50.080;14.418;2022-12-11T04:05:52;98639.66;;;-0.85;73.84
73633;BME280;61927;50.080;14.418;2022-12-11T04:08:19;98629.03;;;-0.77;72.95
73633;BME280;61927;50.080;14.418;2022-12-11T04:10:46;98634.09;;;-0.73;73.00
73633;BME280;61927;50.080;14.418;2022-12-11T04:13:11;98624.13;;;-0.88;72.66
73633;BME280;61927;50.080;14.418;2022-12-11T04:15:38;98633.56;;;-0.84;73.44
73633;BME280;61927;50.080;14.418;2022-12-11T04:18:05;98623.94;;;-0.82;73.38
73633;BME280;61927;50.080;14.418;2022-12-11T04:20:52;98633.34;;;-0.76;72.71
73633;BME280;61927;50.080;14.418;2022-12-11T04:23:36;98630.56;;;-0.70;72.35
73633;BME280;61927;50.080;14.418;2022-12-11T04:26:21;98632.41;;;-0.74;72.69
73633;BME280;61927;50.080;14.418;2022-12-11T04:28:47;98630.50;;;-0.69;72.72
73633;BME280;61927;50.080;14.418;2022-12-11T04:31:15;98635.44;;;-0.59;72.57
73633;BME280;61927;50.080;14.418;2022-12-11T04:33:42;98629.16;;;-0.52;71.71
73633;BME280;61927;50.080;14.418;2022-12-11T04:36:08;98629.94;;;-0.50;71.56
73633;BME280;61927;50.080;14.418;2022-12-11T04:38:34;98619.66;;;-0.55;71.92
73633;BME280;61927;50.080;14.418;2022-12-11T04:41:11;98615.25;;;-0.53;72.29
73633;BME280;61927;50.080;14.418;2022-12-11T04:43:38;98615.53;;;-0.62;71.90
73633;BME280;61927;50.080;14.418;2022-12-11T04:46:09;98616.84;;;-0.77;73.30
73633;BME280;61927;50.080;14.418;2022-12-11T04:48:35;98616.00;;;-0.77;73.94
73633;BME280;61927;50.080;14.418;2022-12-11T04:51:01;98623.41;;;-0.93;73.63
73633;BME280;61927;50.080;14.418;2022-12-11T04:53:26;98626.72;;;-0.88;74.05
73633;BME280;61927;50.080;14.418;2022-12-11T04:55:52;98616.28;;;-0.86;74.22
73633;BME280;61927;50.080;14.418;2022-12-11T04:58:18;98610.13;;;-0.84;73.55
73633;BME280;61927;50.080;14.418;2022-12-11T05:00:44;98612.81;;;-0.87;73.35
73633;BME280;61927;50.080;14.418;2022-12-11T05:03:10;98608.50;;;-0.88;73.91
73633;BME280;61927;50.080;14.418;2022-12-11T05:05:36;98610.16;;;-0.85;74.15
73633;BME280;61927;50.080;14.418;2022-12-11T05:08:01;98611.75;;;-0.80;72.77
73633;BME280;61927;50.080;14.418;2022-12-11T05:10:27;98613.50;;;-0.80;72.80
73633;BME280;61927;50.080;14.418;2022-12-11T05:12:52;98610.34;;;-0.62;72.80
73633;BME280;61927;50.080;14.418;2022-12-11T05:15:18;98599.91;;;-0.62;72.56
73633;BME280;61927;50.080;14.418;2022-12-11T05:17:43;98604.63;;;-0.75;72.17
73633;BME280;61927;50.080;14.418;2022-12-11T05:20:10;98605.72;;;-0.82;71.38
73633;BME280;61927;50.080;14.418;2022-12-11T05:22:36;98603.13;;;-0.82;72.21
73633;BME280;61927;50.080;14.418;2022-12-11T05:25:02;98604.25;;;-0.90;71.86
73633;BME280;61927;50.080;14.418;2022-12-11T05:27:28;98600.78;;;-0.91;72.60
73633;BME280;61927;50.080;14.418;2022-12-11T05:29:53;98605.13;;;-0.91;71.93
73633;BME280;61927;50.080;14.418;2022-12-11T05:32:19;98596.34;;;-0.87;72.46
73633;BME280;61927;50.080;14.418;2022-12-11T05:34:45;98597.88;;;-0.80;71.49
73633;BME280;61927;50.080;14.418;2022-12-11T05:37:10;98600.66;;;-0.86;72.20
73633;BME280;61927;50.080;14.418;2022-12-11T05:39:36;98603.44;;;-0.92;72.34
73633;BME280;61927;50.080;14.418;2022-12-11T05:42:02;98594.72;;;-0.91;71.17
73633;BME280;61927;50.080;14.418;2022-12-11T05:44:28;98596.69;;;-1.00;71.70
73633;BME280;61927;50.080;14.418;2022-12-11T05:46:53;98595.13;;;-1.05;72.09
73633;BME280;61927;50.080;14.418;2022-12-11T05:49:19;98594.94;;;-0.99;71.14
73633;BME280;61927;50.080;14.418;2022-12-11T05:51:44;98594.94;;;-0.99;71.66
73633;BME280;61927;50.080;14.418;2022-12-11T05:54:10;98598.53;;;-1.03;71.17
73633;BME280;61927;50.080;14.418;2022-12-11T05:56:36;98597.69;;;-1.04;71.29
73633;BME280;61927;50.080;14.418;2022-12-11T05:59:03;98599.13;;;-0.93;70.37
73633;BME280;61927;50.080;14.418;2022-12-11T06:01:36;98592.88;;;-0.88;69.54
73633;BME280;61927;50.080;14.418;2022-12-11T06:04:04;98594.94;;;-0.99;70.09
73633;BME280;61927;50.080;14.418;2022-12-11T06:06:29;98610.69;;;-1.04;70.26
73633;BME280;61927;50.080;14.418;2022-12-11T06:08:56;98615.88;;;-1.02;69.96
73633;BME280;61927;50.080;14.418;2022-12-11T06:11:23;98613.53;;;-1.11;70.19
73633;BME280;61927;50.080;14.418;2022-12-11T06:13:49;98616.25;;;-1.16;70.51
73633;BME280;61927;50.080;14.418;2022-12-11T06:16:15;98623.03;;;-1.10;70.45
73633;BME280;61927;50.080;14.418;2022-12-11T06:18:43;98619.50;;;-1.08;70.39
73633;BME280;61927;50.080;14.418;2022-12-11T06:21:15;98629.31;;;-1.17;70.21
73633;BME280;61927;50.080;14.418;2022-12-11T06:23:42;98628.63;;;-1.24;70.80
73633;BME280;61927;50.080;14.418;2022-12-11T06:26:09;98630.41;;;-1.26;70.66
73633;BME280;61927;50.080;14.418;2022-12-11T06:28:36;98635.75;;;-1.31;71.28
73633;BME280;61927;50.080;14.418;2022-12-11T06:31:02;98637.47;;;-1.29;71.42
73633;BME280;61927;50.080;14.418;2022-12-11T06:33:28;98643.44;;;-1.26;71.06
73633;BME280;61927;50.080;14.418;2022-12-11T06:35:53;98641.00;;;-1.32;71.66
73633;BME280;61927;50.080;14.418;2022-12-11T06:38:19;98645.25;;;-1.29;71.41
73633;BME280;61927;50.080;14.418;2022-12-11T06:40:44;98641.59;;;-1.22;70.89
73633;BME280;61927;50.080;14.418;2022-12-11T06:43:10;98638.19;;;-1.24;70.06
73633;BME280;61927;50.080;14.418;2022-12-11T06:45:36;98644.41;;;-1.30;70.49
73633;BME280;61927;50.080;14.418;2022-12-11T06:48:02;98648.63;;;-1.26;70.78
73633;BME280;61927;50.080;14.418;2022-12-11T06:50:28;98647.00;;;-1.30;70.81
73633;BME280;61927;50.080;14.418;2022-12-11T06:52:55;98639.28;;;-1.33;71.15
73633;BME280;61927;50.080;14.418;2022-12-11T06:55:21;98646.13;;;-1.29;70.90
73633;BME280;61927;50.080;14.418;2022-12-11T06:57:47;98635.66;;;-1.27;70.90
73633;BME280;61927;50.080;14.418;2022-12-11T07:00:14;98646.16;;;-1.31;71.18
73633;BME280;61927;50.080;14.418;2022-12-11T07:02:40;98648.84;;;-1.34;71.36
73633;BME280;61927;50.080;14.418;2022-12-11T07:05:05;98651.41;;;-1.32;71.54
73633;BME280;61927;50.080;14.418;2022-12-11T07:07:31;98654.78;;;-1.28;71.80
73633;BME280;61927;50.080;14.418;2022-12-11T07:09:57;98652.91;;;-1.23;72.23
73633;BME280;61927;50.080;14.418;2022-12-11T07:12:22;98651.59;;;-1.07;71.95
73633;BME280;61927;50.080;14.418;2022-12-11T07:14:48;98655.38;;;-0.88;70.51
73633;BME280;61927;50.080;14.418;2022-12-11T07:17:13;98661.13;;;-0.77;69.39
73633;BME280;61927;50.080;14.418;2022-12-11T07:19:39;98654.19;;;-0.76;69.64
73633;BME280;61927;50.080;14.418;2022-12-11T07:22:05;98661.22;;;-0.80;69.79
73633;BME280;61927;50.080;14.418;2022-12-11T07:24:31;98662.44;;;-0.91;70.08
73633;BME280;61927;50.080;14.418;2022-12-11T07:26:56;98665.84;;;-0.89;70.49
73633;BME280;61927;50.080;14.418;2022-12-11T07:29:22;98661.22;;;-0.80;70.41
73633;BME280;61927;50.080;14.418;2022-12-11T07:31:48;98668.06;;;-0.76;69.96
73633;BME280;61927;50.080;14.418;2022-12-11T07:34:13;98666.78;;;-0.92;70.30
73633;BME280;61927;50.080;14.418;2022-12-11T07:36:40;98662.66;;;-0.99;71.34
73633;BME280;61927;50.080;14.418;2022-12-11T07:39:05;98663.25;;;-0.89;71.15
73633;BME280;61927;50.080;14.418;2022-12-11T07:41:32;98673.56;;;-0.86;70.94
73633;BME280;61927;50.080;14.418;2022-12-11T07:43:58;98670.56;;;-0.73;70.97
73633;BME280;61927;50.080;14.418;2022-12-11T07:46:26;98677.91;;;-0.56;70.07
73633;BME280;61927;50.080;14.418;2022-12-11T07:48:53;98673.22;;;-0.45;68.97
73633;BME280;61927;50.080;14.418;2022-12-11T07:51:27;98683.06;;;-0.54;69.45
73633;BME280;61927;50.080;14.418;2022-12-11T07:53:57;98679.09;;;-0.68;69.82
73633;BME280;61927;50.080;14.418;2022-12-11T07:56:23;98676.84;;;-0.80;69.90
73633;BME280;61927;50.080;14.418;2022-12-11T07:58:49;98676.25;;;-0.89;70.48
73633;BME280;61927;50.080;14.418;2022-12-11T08:01:26;98675.38;;;-0.88;71.44
73633;BME280;61927;50.080;14.418;2022-12-11T08:03:52;98676.94;;;-0.83;71.27
73633;BME280;61927;50.080;14.418;2022-12-11T08:06:19;98683.09;;;-0.85;71.42
73633;BME280;61927;50.080;14.418;2022-12-11T08:08:46;98676.03;;;-0.82;71.04
73633;BME280;61927;50.080;14.418;2022-12-11T08:11:13;98676.81;;;-0.78;70.90
73633;BME280;61927;50.080;14.418;2022-12-11T08:13:39;98668.50;;;-0.91;71.32
73633;BME280;61927;50.080;14.418;2022-12-11T08:16:07;98675.31;;;-0.87;71.44
73633;BME280;61927;50.080;14.418;2022-12-11T08:18:34;98673.81;;;-0.95;71.75
73633;BME280;61927;50.080;14.418;2022-12-11T08:21:11;98665.47;;;-1.07;71.70
73633;BME280;61927;50.080;14.418;2022-12-11T08:23:36;98675.16;;;-1.12;72.40
73633;BME280;61927;50.080;14.418;2022-12-11T08:26:03;98678.13;;;-1.25;72.44
73633;BME280;61927;50.080;14.418;2022-12-11T08:28:30;98671.44;;;-1.36;72.69
73633;BME280;61927;50.080;14.418;2022-12-11T08:30:56;98681.16;;;-1.42;72.36
73633;BME280;61927;50.080;14.418;2022-12-11T08:33:22;98678.59;;;-1.44;72.49
73633;BME280;61927;50.080;14.418;2022-12-11T08:35:47;98679.59;;;-1.48;72.63
73633;BME280;61927;50.080;14.418;2022-12-11T08:38:13;98665.72;;;-1.48;72.76
73633;BME280;61927;50.080;14.418;2022-12-11T08:40:39;98666.50;;;-1.45;72.43
73633;BME280;61927;50.080;14.418;2022-12-11T08:43:05;98674.25;;;-1.43;72.23
73633;BME280;61927;50.080;14.418;2022-12-11T08:45:31;98679.19;;;-1.33;72.33
73633;BME280;61927;50.080;14.418;2022-12-11T08:47:57;98675.59;;;-1.28;71.28
73633;BME280;61927;50.080;14.418;2022-12-11T08:50:23;98671.13;;;-1.23;71.19
73633;BME280;61927;50.080;14.418;2022-12-11T08:52:49;98680.81;;;-1.28;70.68
73633;BME280;61927;50.080;14.418;2022-12-11T08:55:15;98677.09;;;-1.20;70.79
73633;BME280;61927;50.080;14.418;2022-12-11T08:57:40;98683.16;;;-1.19;71.15
73633;BME280;61927;50.080;14.418;2022-12-11T09:00:08;98676.91;;;-1.12;70.51
73633;BME280;61927;50.080;14.418;2022-12-11T09:02:34;98672.53;;;-1.12;69.92
73633;BME280;61927;50.080;14.418;2022-12-11T09:05:00;98675.34;;;-1.19;70.52
73633;BME280;61927;50.080;14.418;2022-12-11T09:07:26;98671.34;;;-1.31;69.93
73633;BME280;61927;50.080;14.418;2022-12-11T09:09:53;98669.66;;;-1.34;70.07
73633;BME280;61927;50.080;14.418;2022-12-11T09:12:19;98670.44;;;-1.30;70.60
73633;BME280;61927;50.080;14.418;2022-12-11T09:14:45;98659.91;;;-1.25;69.86
73633;BME280;61927;50.080;14.418;2022-12-11T09:17:10;98666.69;;;-1.20;67.70
73633;BME280;61927;50.080;14.418;2022-12-11T09:19:36;98663.88;;;-1.12;66.86
73633;BME280;61927;50.080;14.418;2022-12-11T09:22:01;98672.34;;;-1.04;66.77
73633;BME280;61927;50.080;14.418;2022-12-11T09:24:27;98668.84;;;-1.03;67.29
73633;BME280;61927;50.080;14.418;2022-12-11T09:26:53;98674.81;;;-1.00;66.88
73633;BME280;61927;50.080;14.418;2022-12-11T09:29:19;98672.59;;;-0.82;64.81
73633;BME280;61927;50.080;14.418;2022-12-11T09:31:44;98675.88;;;-0.76;64.56
73633;BME280;61927;50.080;14.418;2022-12-11T09:34:12;98672.81;;;-0.60;63.79
73633;BME280;61927;50.080;14.418;2022-12-11T09:36:39;98681.81;;;-0.71;63.26
73633;BME280;61927;50.080;14.418;2022-12-11T09:39:07;98687.63;;;-0.62;62.29
73633;BME280;61927;50.080;14.418;2022-12-11T09:42:40;98684.13;;;-0.61;62.65
73633;BME280;61927;50.080;14.418;2022-12-11T09:44:56;98683.56;;;-0.71;63.42
73633;BME280;61927;50.080;14.418;2022-12-11T09:47:34;98683.97;;;-0.55;63.14
73633;BME280;61927;50.080;14.418;2022-12-11T09:55:12;98660.81;;;-0.37;62.04
73633;BME280;61927;50.080;14.418;2022-12-11T09:58:04;98661.03;;;-0.44;62.56
73633;BME280;61927;50.080;14.418;2022-12-11T10:00:40;98648.88;;;-0.44;62.38
73633;BME280;61927;50.080;14.418;2022-12-11T10:03:26;98648.41;;;-0.28;61.68
73633;BME280;61927;50.080;14.418;2022-12-11T10:08:30;98650.75;;;-0.49;60.35
73633;BME280;61927;50.080;14.418;2022-12-11T10:11:30;98644.56;;;-0.74;61.65
73633;BME280;61927;50.080;14.418;2022-12-11T10:14:12;98649.88;;;-0.77;61.14
73633;BME280;61927;50.080;14.418;2022-12-11T10:16:44;98653.53;;;-0.84;62.07
73633;BME280;61927;50.080;14.418;2022-12-11T10:19:28;98655.47;;;-0.91;61.39
73633;BME280;61927;50.080;14.418;2022-12-11T10:21:55;98653.94;;;-0.98;62.24
73633;BME280;61927;50.080;14.418;2022-12-11T10:24:29;98653.94;;;-0.98;62.62
73633;BME280;61927;50.080;14.418;2022-12-11T10:27:01;98647.53;;;-0.86;62.46
73633;BME280;61927;50.080;14.418;2022-12-11T10:29:36;98651.41;;;-0.70;61.03
73633;BME280;61927;50.080;14.418;2022-12-11T10:32:03;98651.97;;;-0.60;60.39
73633;BME280;61927;50.080;14.418;2022-12-11T10:34:34;98643.25;;;-0.59;60.47
73633;BME280;61927;50.080;14.418;2022-12-11T10:37:02;98649.19;;;-0.54;60.07
73633;BME280;61927;50.080;14.418;2022-12-11T10:39:28;98639.66;;;-0.55;59.98
73633;BME280;61927;50.080;14.418;2022-12-11T10:41:55;98639.00;;;-0.34;59.86
73633;BME280;61927;50.080;14.418;2022-12-11T10:44:25;98637.16;;;-0.30;59.41
73633;BME280;61927;50.080;14.418;2022-12-11T10:47:10;98635.06;;;-0.19;58.89
73633;BME280;61927;50.080;14.418;2022-12-11T10:49:36;98628.75;;;-0.12;57.96
73633;BME280;61927;50.080;14.418;2022-12-11T10:52:41;98626.09;;;-0.11;58.71
73633;BME280;61927;50.080;14.418;2022-12-11T10:55:27;98621.78;;;-0.12;58.77
73633;BME280;61927;50.080;14.418;2022-12-11T10:58:03;98615.13;;;-0.20;58.23
73633;BME280;61927;50.080;14.418;2022-12-11T11:00:33;98620.72;;;-0.32;57.94
73633;BME280;61927;50.080;14.418;2022-12-11T11:03:00;98613.84;;;-0.35;58.80
73633;BME280;61927;50.080;14.418;2022-12-11T11:08:19;98608.84;;;-0.15;59.29
73633;BME280;61927;50.080;14.418;2022-12-11T11:11:22;98603.34;;;-0.06;58.78
73633;BME280;61927;50.080;14.418;2022-12-11T11:13:48;98599.53;;;0.05;58.85
73633;BME280;61927;50.080;14.418;2022-12-11T11:16:16;98589.91;;;0.07;58.70
73633;BME280;61927;50.080;14.418;2022-12-11T11:18:53;98589.59;;;0.16;58.12
73633;BME280;61927;50.080;14.418;2022-12-11T11:21:21;98586.34;;;0.09;58.59
73633;BME280;61927;50.080;14.418;2022-12-11T11:23:49;98588.13;;;0.07;57.75
73633;BME280;61927;50.080;14.418;2022-12-11T11:26:16;98588.09;;;0.09;58.28
73633;BME280;61927;50.080;14.418;2022-12-11T11:28:50;98583.41;;;0.18;58.45
73633;BME280;61927;50.080;14.418;2022-12-11T11:31:17;98571.66;;;0.31;58.74
73633;BME280;61927;50.080;14.418;2022-12-11T11:36:28;98569.69;;;0.38;57.81
73633;BME280;61927;50.080;14.418;2022-12-11T11:42:14;98574.41;;;0.02;58.07
73633;BME280;61927;50.080;14.418;2022-12-11T11:44:56;98580.63;;;-0.02;59.16
73633;BME280;61927;50.080;14.418;2022-12-11T11:47:27;98583.06;;;0.03;59.88
73633;BME280;61927;50.080;14.418;2022-12-11T11:50:14;98580.66;;;-0.04;59.45
73633;BME280;61927;50.080;14.418;2022-12-11T11:52:47;98575.81;;;-0.14;60.03
73633;BME280;61927;50.080;14.418;2022-12-11T11:55:18;98580.91;;;-0.11;60.86
73633;BME280;61927;50.080;14.418;2022-12-11T11:57:52;98579.63;;;-0.24;61.13
73633;BME280;61927;50.080;14.418;2022-12-11T12:00:23;98586.16;;;-0.39;61.89
73633;BME280;61927;50.080;14.418;2022-12-11T12:02:53;98579.06;;;-0.62;61.26
73633;BME280;61927;50.080;14.418;2022-12-11T12:05:26;98591.00;;;-0.83;61.90
73633;BME280;61927;50.080;14.418;2022-12-11T12:11:02;98584.25;;;-0.90;60.55
73633;BME280;61927;50.080;14.418;2022-12-11T12:13:47;98580.28;;;-1.02;60.88
73633;BME280;61927;50.080;14.418;2022-12-11T12:16:44;98574.13;;;-0.99;60.67
73633;BME280;61927;50.080;14.418;2022-12-11T12:21:52;98566.78;;;-1.16;61.93
73633;BME280;61927;50.080;14.418;2022-12-11T12:30:02;98567.97;;;-0.96;60.81
73633;BME280;61927;50.080;14.418;2022-12-11T12:35:07;98557.41;;;-0.92;59.96
73633;BME280;61927;50.080;14.418;2022-12-11T12:37:45;98566.03;;;-1.19;60.03
73633;BME280;61927;50.080;14.418;2022-12-11T12:40:25;98558.06;;;-1.44;60.88
73633;BME280;61927;50.080;14.418;2022-12-11T12:43:04;98566.50;;;-1.36;61.58
73633;BME280;61927;50.080;14.418;2022-12-11T12:45:48;98555.44;;;-1.13;61.37
73633;BME280;61927;50.080;14.418;2022-12-11T12:48:19;98553.81;;;-1.17;62.45
73633;BME280;61927;50.080;14.418;2022-12-11T12:50:47;98555.66;;;-1.21;61.89
73633;BME280;61927;50.080;14.418;2022-12-11T12:53:34;98564.81;;;-1.37;62.44
73633;BME280;61927;50.080;14.418;2022-12-11T12:56:02;98562.22;;;-1.37;61.98
73633;BME280;61927;50.080;14.418;2022-12-11T13:01:19;98556.59;;;-1.23;62.64
73633;BME280;61927;50.080;14.418;2022-12-11T13:03:50;98558.94;;;-1.14;62.57
73633;BME280;61927;50.080;14.418;2022-12-11T13:06:37;98564.28;;;-1.19;62.44
73633;BME280;61927;50.080;14.418;2022-12-11T13:09:22;98552.88;;;-1.15;61.39
73633;BME280;61927;50.080;14.418;2022-12-11T13:11:49;98557.09;;;-1.11;62.39
73633;BME280;61927;50.080;14.418;2022-12-11T13:16:45;98551.44;;;-1.25;61.43
73633;BME280;61927;50.080;14.418;2022-12-11T13:26:47;98548.66;;;-1.19;62.02
73633;BME280;61927;50.080;14.418;2022-12-11T13:29:48;98553.09;;;-1.22;61.05
73633;BME280;61927;50.080;14.418;2022-12-11T13:34:45;98559.22;;;-1.23;60.15
73633;BME280;61927;50.080;14.418;2022-12-11T13:37:32;98556.69;;;-1.26;58.71
73633;BME280;61927;50.080;14.418;2022-12-11T13:40:05;98548.88;;;-1.26;57.45
73633;BME280;61927;50.080;14.418;2022-12-11T13:42:42;98555.63;;;-1.19;57.86
73633;BME280;61927;50.080;14.418;2022-12-11T13:48:00;98550.72;;;-1.01;56.09
73633;BME280;61927;50.080;14.418;2022-12-11T13:50:33;98557.59;;;-0.98;55.82
73633;BME280;61927;50.080;14.418;2022-12-11T13:53:00;98558.25;;;-0.91;54.94
73633;BME280;61927;50.080;14.418;2022-12-11T13:55:29;98569.03;;;-1.04;54.07
73633;BME280;61927;50.080;14.418;2022-12-11T13:57:55;98564.19;;;-1.16;54.13
73633;BME280;61927;50.080;14.418;2022-12-11T14:00:24;98568.38;;;-1.10;54.62
73633;BME280;61927;50.080;14.418;2022-12-11T14:02:52;98571.88;;;-1.11;55.00
73633;BME280;61927;50.080;14.418;2022-12-11T14:05:20;98559.38;;;-1.29;55.03
73633;BME280;61927;50.080;14.418;2022-12-11T14:07:54;98568.03;;;-1.29;56.48